createdAt,value
2022-08-16T00:00:04.417Z,15.25
2022-08-16T00:02:33.468Z,15.50
2022-08-16T00:05:01.224Z,16.48
2022-08-16T00:07:29.792Z,16.15
2022-08-16T00:09:58.744Z,15.50
2022-08-16T00:12:28.047Z,19.05
2022-08-16T00:14:57.137Z,16.85
2022-08-16T00:17:25.920Z,12.60
2022-08-16T00:19:54.975Z,18.88
2022-08-16T00:22:27.949Z,14.13
2022-08-16T00:24:55.432Z,14.83
2022-08-16T00:27:23.442Z,15.32
2022-08-16T00:30:08.256Z,18.08
2022-08-16T00:32:38.618Z,12.02
2022-08-16T00:35:15.674Z,17.08
2022-08-16T00:37:57.924Z,13.98
2022-08-16T00:40:53.791Z,17.83
2022-08-16T00:43:26.358Z,16.42
2022-08-16T00:46:33.611Z,13.00
2022-08-16T00:49:01.059Z,15.43
2022-08-16T00:51:29.821Z,17.08
2022-08-16T00:53:58.841Z,13.48
2022-08-16T00:56:58.647Z,16.70
2022-08-16T00:59:23.757Z,15.77
2022-08-16T01:01:52.366Z,15.30
2022-08-16T01:04:29.444Z,17.90
2022-08-16T01:07:05.175Z,14.45
2022-08-16T01:09:37.157Z,17.40
2022-08-16T01:12:08.755Z,16.48
2022-08-16T01:14:45.193Z,16.02
2022-08-16T01:17:17.088Z,11.05
2022-08-16T01:19:48.409Z,13.60
2022-08-16T01:22:49.641Z,14.85
2022-08-16T01:25:38.759Z,13.82
2022-08-16T01:28:11.191Z,16.65
2022-08-16T01:30:52.297Z,17.33
2022-08-16T01:33:22.464Z,16.73
2022-08-16T01:35:54.315Z,14.95
2022-08-16T01:38:31.758Z,14.60
2022-08-16T01:41:06.590Z,14.80
2022-08-16T01:43:36.227Z,14.05
2022-08-16T01:46:30.175Z,13.68
2022-08-16T01:49:01.366Z,15.52
2022-08-16T01:51:29.071Z,14.15
2022-08-16T01:53:58.354Z,11.93
2022-08-16T01:56:30.260Z,13.98
2022-08-16T01:59:00.352Z,18.25
2022-08-16T02:01:28.960Z,12.77
2022-08-16T02:03:58.414Z,13.52
2022-08-16T02:06:34.220Z,17.13
2022-08-16T02:09:05.268Z,13.73
2022-08-16T02:11:42.962Z,13.85
2022-08-16T02:14:18.466Z,16.33
2022-08-16T02:16:49.806Z,16.35
2022-08-16T02:19:18.656Z,13.63
2022-08-16T02:22:08.862Z,13.60
2022-08-16T02:24:46.011Z,13.02
2022-08-16T02:27:14.125Z,14.57
2022-08-16T02:29:43.060Z,16.45
2022-08-16T02:32:50.940Z,16.35
2022-08-16T02:35:04.577Z,16.60
2022-08-16T02:37:51.590Z,11.57
2022-08-16T02:40:23.661Z,13.32
2022-08-16T02:42:54.028Z,11.27
2022-08-16T02:45:27.659Z,10.52
2022-08-16T02:48:00.518Z,16.48
2022-08-16T02:50:55.186Z,13.25
2022-08-16T02:53:15.264Z,15.75
2022-08-16T02:55:46.173Z,15.20
2022-08-16T02:58:18.997Z,15.13
2022-08-16T03:00:50.294Z,12.13
2022-08-16T03:03:18.578Z,12.27
2022-08-16T03:05:50.035Z,13.45
2022-08-16T03:08:50.487Z,13.50
2022-08-16T03:11:16.715Z,14.00
2022-08-16T03:13:51.397Z,13.52
2022-08-16T03:16:37.763Z,14.90
2022-08-16T03:19:10.695Z,15.80
2022-08-16T03:21:38.870Z,18.25
2022-08-16T03:24:28.994Z,16.73
2022-08-16T03:26:59.213Z,14.70
2022-08-16T03:29:32.034Z,14.52
2022-08-16T03:32:01.785Z,15.18
2022-08-16T03:34:30.742Z,15.98
2022-08-16T03:36:58.324Z,16.60
2022-08-16T03:39:25.683Z,11.50
2022-08-16T03:41:59.652Z,14.93
2022-08-16T03:47:12.775Z,13.45
2022-08-16T03:49:51.887Z,12.55
2022-08-16T03:52:23.611Z,16.85
2022-08-16T03:54:58.130Z,13.20
2022-08-16T03:57:32.070Z,15.15
2022-08-16T04:00:20.776Z,14.10
2022-08-16T04:03:08.539Z,16.30
2022-08-16T04:05:46.757Z,15.07
2022-08-16T04:08:22.717Z,14.82
2022-08-16T04:10:58.281Z,13.55
2022-08-16T04:14:01.799Z,15.02
2022-08-16T04:16:27.636Z,13.45
2022-08-16T04:19:07.602Z,17.00
2022-08-16T04:21:46.011Z,16.35
2022-08-16T04:24:18.477Z,16.85
2022-08-16T04:26:46.898Z,13.55
2022-08-16T04:29:23.943Z,13.80
2022-08-16T04:31:56.201Z,14.07
2022-08-16T04:34:30.719Z,12.68
2022-08-16T04:37:01.572Z,14.07
2022-08-16T04:39:37.156Z,14.13
2022-08-16T04:42:17.305Z,15.85
2022-08-16T04:44:54.042Z,15.48
2022-08-16T04:47:31.740Z,16.80
2022-08-16T04:50:14.540Z,18.50
2022-08-16T04:52:58.104Z,15.17
2022-08-16T04:55:31.786Z,18.90
2022-08-16T04:58:44.198Z,14.45
2022-08-16T05:00:57.872Z,19.65
2022-08-16T05:03:26.210Z,19.73
2022-08-16T05:05:55.908Z,17.35
2022-08-16T05:08:30.978Z,16.73
2022-08-16T05:11:08.994Z,14.90
2022-08-16T05:13:40.334Z,15.65
2022-08-16T05:16:21.840Z,17.13
2022-08-16T05:18:57.028Z,17.35
2022-08-16T05:21:38.016Z,17.67
2022-08-16T05:24:09.072Z,16.23
2022-08-16T05:26:43.283Z,17.55
2022-08-16T05:29:17.335Z,17.85
2022-08-16T05:32:01.406Z,14.75
2022-08-16T05:34:29.732Z,18.85
2022-08-16T05:36:57.487Z,16.40
2022-08-16T05:39:33.651Z,13.73
2022-08-16T05:42:08.085Z,15.98
2022-08-16T05:44:37.567Z,16.05
2022-08-16T05:47:05.943Z,14.48
2022-08-16T05:49:38.433Z,20.20
2022-08-16T05:52:13.411Z,15.15
2022-08-16T05:54:47.327Z,18.10
2022-08-16T05:57:19.251Z,18.55
2022-08-16T05:59:50.693Z,18.30
2022-08-16T06:02:33.457Z,14.00
2022-08-16T06:05:03.159Z,20.67
2022-08-16T06:07:32.108Z,17.73
2022-08-16T06:10:08.109Z,17.10
2022-08-16T06:12:37.693Z,16.60
2022-08-16T06:15:16.694Z,17.75
2022-08-16T06:17:45.175Z,21.83
2022-08-16T06:20:23.378Z,18.02
2022-08-16T06:22:57.585Z,25.90
2022-08-16T06:25:36.258Z,19.85
2022-08-16T06:28:09.419Z,23.65
2022-08-16T06:30:43.736Z,18.85
2022-08-16T06:33:19.699Z,20.95
2022-08-16T06:35:55.334Z,19.85
2022-08-16T06:38:33.711Z,20.75
2022-08-16T06:41:13.828Z,21.77
2022-08-16T06:43:43.105Z,19.65
2022-08-16T06:46:34.324Z,22.20
2022-08-16T06:49:11.293Z,21.40
2022-08-16T06:51:46.705Z,21.85
2022-08-16T06:54:20.888Z,22.35
2022-08-16T06:56:48.066Z,22.50
2022-08-16T06:59:25.546Z,23.25
2022-08-16T07:01:58.521Z,19.77
2022-08-16T07:04:33.123Z,18.25
2022-08-16T07:07:11.461Z,20.13
2022-08-16T07:09:42.120Z,18.08
2022-08-16T07:12:09.827Z,20.20
2022-08-16T07:14:41.451Z,19.88
2022-08-16T07:17:12.943Z,19.30
2022-08-16T07:20:02.989Z,22.65
2022-08-16T07:22:52.510Z,21.13
2022-08-16T07:25:31.614Z,19.00
2022-08-16T07:28:00.817Z,21.17
2022-08-16T07:30:46.003Z,18.60
2022-08-16T07:33:51.802Z,19.40
2022-08-16T07:36:25.061Z,23.30
2022-08-16T07:38:52.917Z,21.55
2022-08-16T07:41:21.243Z,28.50
2022-08-16T07:43:55.322Z,17.77
2022-08-16T07:46:37.937Z,18.08
2022-08-16T07:49:16.188Z,16.45
2022-08-16T07:51:45.807Z,21.75
2022-08-16T07:54:20.675Z,22.05
2022-08-16T07:56:53.825Z,17.88
2022-08-16T07:59:21.645Z,20.80
2022-08-16T08:01:49.266Z,21.30
2022-08-16T08:04:20.879Z,22.45
2022-08-16T08:06:50.912Z,17.30
2022-08-16T08:09:19.193Z,21.83
2022-08-16T08:11:59.835Z,21.98
2022-08-16T08:14:34.179Z,19.65
2022-08-16T08:17:01.841Z,21.67
2022-08-16T08:19:31.450Z,23.60
2022-08-16T08:22:02.557Z,23.70
2022-08-16T08:24:46.870Z,21.45
2022-08-16T08:27:22.437Z,26.48
2022-08-16T08:30:48.786Z,17.83
2022-08-16T08:32:59.945Z,16.20
2022-08-16T08:35:27.025Z,20.73
2022-08-16T08:37:56.412Z,17.58
2022-08-16T08:40:29.569Z,15.82
2022-08-16T08:43:12.205Z,16.05
2022-08-16T08:45:48.006Z,12.73
2022-08-16T08:48:33.863Z,16.23
2022-08-16T08:51:13.716Z,18.55
2022-08-16T08:53:57.462Z,13.73
2022-08-16T08:56:30.454Z,14.75
2022-08-16T08:59:13.173Z,14.50
2022-08-16T09:01:56.632Z,13.23
2022-08-16T09:06:55.655Z,11.52
2022-08-16T09:09:33.661Z,11.85
2022-08-16T09:12:06.947Z,14.70
2022-08-16T09:46:45.613Z,12.32
2022-08-16T09:49:20.015Z,12.25
2022-08-16T09:51:50.043Z,12.60
2022-08-16T09:54:17.425Z,10.77
2022-08-16T09:56:52.701Z,11.27
2022-08-16T09:59:20.998Z,16.20
2022-08-16T10:01:51.675Z,11.65
2022-08-16T10:04:33.187Z,18.20
2022-08-16T10:07:11.972Z,14.52
2022-08-16T10:09:55.209Z,12.90
2022-08-16T10:12:55.824Z,14.93
2022-08-16T10:15:24.575Z,19.63
2022-08-16T10:18:01.174Z,18.02
2022-08-16T10:20:33.991Z,9.70
2022-08-16T10:23:06.773Z,11.02
2022-08-16T10:27:19.483Z,24.17
2022-08-16T10:28:40.027Z,14.32
2022-08-16T10:31:12.021Z,12.88
2022-08-16T10:33:44.011Z,17.60
2022-08-16T10:36:12.411Z,9.70
2022-08-16T10:38:59.471Z,18.40
2022-08-16T10:41:26.586Z,14.30
2022-08-16T10:43:54.187Z,10.68
2022-08-16T10:46:40.042Z,13.60
2022-08-16T10:49:10.976Z,12.90
2022-08-16T10:52:01.186Z,18.63
2022-08-16T10:54:29.342Z,13.55
2022-08-16T10:57:04.263Z,9.15
2022-08-16T10:59:46.958Z,8.43
2022-08-16T11:03:37.599Z,9.88
2022-08-16T11:05:12.616Z,11.32
2022-08-16T11:07:51.701Z,12.35
2022-08-16T11:13:57.200Z,14.90
2022-08-16T11:19:05.288Z,7.13
2022-08-16T11:21:35.106Z,9.32
2022-08-16T11:24:02.178Z,9.73
2022-08-16T11:26:29.816Z,13.75
2022-08-16T11:29:13.873Z,10.73
2022-08-16T11:31:45.569Z,12.35
2022-08-16T11:34:14.425Z,12.05
2022-08-16T11:36:59.497Z,9.45
2022-08-16T11:39:32.005Z,12.23
2022-08-16T11:42:02.533Z,9.35
2022-08-16T11:44:52.382Z,8.95
2022-08-16T11:47:21.728Z,11.07
2022-08-16T11:49:48.851Z,10.23
2022-08-16T11:52:17.777Z,7.43
2022-08-16T11:54:56.758Z,11.25
2022-08-16T11:57:24.212Z,10.52
2022-08-16T11:59:51.958Z,12.73
2022-08-16T12:02:31.460Z,7.85
2022-08-16T12:04:59.895Z,10.75
2022-08-16T12:07:28.178Z,8.82
2022-08-16T12:09:55.311Z,10.27
2022-08-16T12:12:23.903Z,11.60
2022-08-16T12:15:00.140Z,16.45
2022-08-16T12:17:32.080Z,12.13
2022-08-16T12:20:00.903Z,12.60
2022-08-16T12:22:29.139Z,10.32
2022-08-16T12:24:56.512Z,8.18
2022-08-16T12:27:25.542Z,15.80
2022-08-16T12:29:53.998Z,11.20
2022-08-16T12:32:35.851Z,7.35
2022-08-16T12:35:11.863Z,11.82
2022-08-16T12:37:39.823Z,13.23
2022-08-16T12:40:24.859Z,9.55
2022-08-16T12:45:22.817Z,7.38
2022-08-16T12:48:32.793Z,11.63
2022-08-16T12:50:57.407Z,7.63
2022-08-16T12:53:24.655Z,12.77
2022-08-16T12:55:52.790Z,9.30
2022-08-16T12:58:49.328Z,14.27
2022-08-16T13:01:09.475Z,7.70
2022-08-16T13:03:40.627Z,11.27
2022-08-16T13:06:08.817Z,10.95
2022-08-16T13:08:36.391Z,12.45
2022-08-16T13:11:07.893Z,10.95
2022-08-16T13:13:35.789Z,9.75
2022-08-16T13:16:15.948Z,7.93
2022-08-16T13:18:52.583Z,7.82
2022-08-16T13:21:23.851Z,9.82
2022-08-16T13:23:55.596Z,8.25
2022-08-16T13:26:24.135Z,8.32
2022-08-16T13:28:53.503Z,12.05
2022-08-16T13:31:20.401Z,6.32
2022-08-16T13:33:47.592Z,13.20
2022-08-16T13:36:38.792Z,9.02
2022-08-16T13:39:03.824Z,7.78
2022-08-16T13:41:31.759Z,7.40
2022-08-16T13:44:00.746Z,13.90
2022-08-16T13:46:29.973Z,10.25
2022-08-16T13:48:57.884Z,9.73
2022-08-16T13:51:25.511Z,16.15
2022-08-16T13:54:02.575Z,9.70
2022-08-16T13:56:37.669Z,11.32
2022-08-16T13:59:19.512Z,5.97
2022-08-16T14:01:55.695Z,12.13
2022-08-16T14:04:26.613Z,11.45
2022-08-16T14:06:55.403Z,9.50
2022-08-16T14:09:24.423Z,12.68
2022-08-16T14:11:54.452Z,10.43
2022-08-16T14:14:29.181Z,10.13
2022-08-16T14:17:02.102Z,7.80
2022-08-16T14:19:30.016Z,12.40
2022-08-16T14:22:15.141Z,9.88
2022-08-16T14:24:50.095Z,13.38
2022-08-16T14:27:19.612Z,11.27
2022-08-16T14:29:49.980Z,11.70
2022-08-16T14:32:27.008Z,10.35
2022-08-16T14:35:04.611Z,16.08
2022-08-16T14:37:34.963Z,10.13
2022-08-16T14:40:03.584Z,10.45
2022-08-16T14:42:30.907Z,8.70
2022-08-16T14:44:57.987Z,19.73
2022-08-16T14:47:34.148Z,11.82
2022-08-16T14:50:02.733Z,8.40
2022-08-16T14:52:54.032Z,9.40
2022-08-16T14:55:17.155Z,13.63
2022-08-16T14:57:44.115Z,13.18
2022-08-16T15:00:13.338Z,7.30
2022-08-16T15:02:42.915Z,8.60
2022-08-16T15:05:11.917Z,11.05
2022-08-16T15:07:40.299Z,9.75
2022-08-16T15:10:12.133Z,10.25
2022-08-16T15:12:56.249Z,10.32
2022-08-16T15:15:27.843Z,8.55
2022-08-16T15:17:56.958Z,10.18
2022-08-16T15:20:30.013Z,9.38
2022-08-16T15:22:59.737Z,13.80
2022-08-16T15:25:31.899Z,8.70
2022-08-16T15:28:02.536Z,12.80
2022-08-16T15:30:58.088Z,15.20
2022-08-16T15:33:25.463Z,15.35
2022-08-16T15:35:55.391Z,14.13
2022-08-16T15:38:57.874Z,9.88
2022-08-16T15:41:29.072Z,10.57
2022-08-16T15:44:04.830Z,9.27
2022-08-16T15:46:54.717Z,12.20
2022-08-16T15:49:20.337Z,13.63
2022-08-16T15:51:48.168Z,8.32
2022-08-16T15:54:30.010Z,14.02
2022-08-16T15:57:09.668Z,13.32
2022-08-16T15:59:48.116Z,21.45
2022-08-16T16:02:27.238Z,11.13
2022-08-16T16:04:54.891Z,14.38
2022-08-16T16:07:22.303Z,13.27
2022-08-16T16:09:49.781Z,9.88
2022-08-16T16:12:50.473Z,18.33
2022-08-16T16:15:07.859Z,7.63
2022-08-16T16:17:35.535Z,9.18
2022-08-16T16:20:05.242Z,10.00
2022-08-16T16:22:40.786Z,12.20
2022-08-16T16:25:07.862Z,8.80
2022-08-16T16:27:36.206Z,8.95
2022-08-16T16:30:11.310Z,9.10
2022-08-16T16:32:51.744Z,8.80
2022-08-16T16:35:19.008Z,9.60
2022-08-16T16:37:56.563Z,8.23
2022-08-16T16:40:32.296Z,11.68
2022-08-16T16:43:00.623Z,15.63
2022-08-16T16:45:33.503Z,9.98
2022-08-16T16:48:12.439Z,12.10
2022-08-16T16:50:44.597Z,8.98
2022-08-16T16:53:16.927Z,11.10
2022-08-16T16:55:52.250Z,17.25
2022-08-16T16:58:43.390Z,10.90
2022-08-16T17:01:20.941Z,8.73
2022-08-16T17:04:13.139Z,10.45
2022-08-16T17:06:53.352Z,7.32
2022-08-16T17:09:20.964Z,11.75
2022-08-16T17:11:55.213Z,16.05
2022-08-16T17:14:32.411Z,10.88
2022-08-16T17:17:05.146Z,7.30
2022-08-16T17:19:32.611Z,17.73
2022-08-16T17:22:02.095Z,12.00
2022-08-16T17:24:39.824Z,12.70
2022-08-16T17:27:11.682Z,8.57
2022-08-16T17:29:46.490Z,11.25
2022-08-16T17:32:34.010Z,10.55
2022-08-16T17:35:18.458Z,8.98
2022-08-16T17:37:51.937Z,11.27
2022-08-16T17:43:10.279Z,10.02
2022-08-16T17:45:39.242Z,9.82
2022-08-16T17:48:06.689Z,14.27
2022-08-16T17:50:33.811Z,7.57
2022-08-16T17:53:04.201Z,13.60
2022-08-16T17:55:34.611Z,10.95
2022-08-16T17:58:01.850Z,7.47
2022-08-16T18:00:47.420Z,9.45
2022-08-16T18:04:09.126Z,9.00
2022-08-16T18:06:16.734Z,10.60
2022-08-16T18:08:48.534Z,8.00
2022-08-16T18:11:18.259Z,7.53
2022-08-16T18:13:46.645Z,9.57
2022-08-16T18:16:16.631Z,8.63
2022-08-16T18:18:46.076Z,8.90
2022-08-16T18:21:33.166Z,9.75
2022-08-16T18:24:00.281Z,8.18
2022-08-16T18:26:27.277Z,9.88
2022-08-16T18:28:54.268Z,12.27
2022-08-16T18:31:21.283Z,11.35
2022-08-16T18:33:49.438Z,13.50
2022-08-16T18:38:50.148Z,6.57
2022-08-16T18:41:18.719Z,11.68
2022-08-16T18:43:54.396Z,8.65
2022-08-16T18:46:32.687Z,9.52
2022-08-16T18:48:59.839Z,13.32
2022-08-16T18:51:26.945Z,15.43
2022-08-16T18:53:54.229Z,16.73
2022-08-16T18:56:21.245Z,15.32
2022-08-16T18:58:49.067Z,15.27
2022-08-16T19:01:16.747Z,15.30
2022-08-16T19:03:43.864Z,15.50
2022-08-16T19:06:15.132Z,17.23
2022-08-16T19:08:44.604Z,10.20
2022-08-16T19:11:23.478Z,8.57
2022-08-16T19:13:50.706Z,35.55
2022-08-16T19:16:18.079Z,8.13
2022-08-16T19:18:49.852Z,12.00
2022-08-16T19:21:16.808Z,9.55
2022-08-16T19:23:44.587Z,7.03
2022-08-16T19:26:24.905Z,6.90
2022-08-16T19:28:58.746Z,9.18
2022-08-16T19:31:32.733Z,7.95
2022-08-16T19:34:00.843Z,8.15
2022-08-16T19:36:35.299Z,9.95
2022-08-16T19:39:05.972Z,9.45
2022-08-16T19:41:38.217Z,8.55
2022-08-16T19:44:06.732Z,7.55
2022-08-16T19:46:34.411Z,8.38
2022-08-16T19:49:01.474Z,11.00
2022-08-16T19:51:29.032Z,6.65
2022-08-16T19:53:56.165Z,10.35
2022-08-16T19:56:25.734Z,9.98
2022-08-16T20:01:42.772Z,6.78
2022-08-16T20:04:12.552Z,12.38
2022-08-16T20:06:40.523Z,10.20
2022-08-16T20:09:07.596Z,8.38
2022-08-16T20:11:35.362Z,8.10
2022-08-16T20:14:02.749Z,10.82
2022-08-16T20:16:29.980Z,10.55
2022-08-16T20:18:56.967Z,8.40
2022-08-16T20:21:24.321Z,10.48
2022-08-16T20:23:51.649Z,8.25
2022-08-16T20:26:19.046Z,9.98
2022-08-16T20:28:54.331Z,9.13
2022-08-16T20:31:23.842Z,11.95
2022-08-16T20:33:51.757Z,12.10
2022-08-16T20:36:18.759Z,11.73
2022-08-16T20:38:47.724Z,12.18
2022-08-16T20:41:16.118Z,8.93
2022-08-16T20:43:43.402Z,14.52
2022-08-16T20:46:10.693Z,10.48
2022-08-16T20:48:37.723Z,9.98
2022-08-16T20:51:06.789Z,9.40
2022-08-16T20:53:34.048Z,13.05
2022-08-16T20:56:01.070Z,8.82
2022-08-16T20:58:28.035Z,10.48
2022-08-16T21:00:55.023Z,11.00
2022-08-16T21:03:21.993Z,10.48
2022-08-16T21:05:48.990Z,9.82
2022-08-16T21:08:27.893Z,14.93
2022-08-16T21:11:06.326Z,14.32
2022-08-16T21:13:33.987Z,9.85
2022-08-16T21:16:02.547Z,9.88
2022-08-16T21:18:29.619Z,8.75
2022-08-16T21:20:56.568Z,11.05
2022-08-16T21:23:23.581Z,13.32
2022-08-16T21:25:59.053Z,10.35
2022-08-16T21:28:41.873Z,11.88
2022-08-16T21:31:15.262Z,11.32
2022-08-16T21:33:44.320Z,10.43
2022-08-16T21:36:14.420Z,9.90
2022-08-16T21:38:41.302Z,8.60
2022-08-16T21:41:10.200Z,10.23
2022-08-16T21:43:37.152Z,9.60
2022-08-16T21:46:05.706Z,13.55
2022-08-16T21:48:34.519Z,9.18
2022-08-16T21:51:08.332Z,11.05
2022-08-16T21:53:37.842Z,9.18
2022-08-16T21:56:05.320Z,8.38
2022-08-16T21:58:33.075Z,11.98
2022-08-16T22:01:01.241Z,16.05
2022-08-16T22:03:32.439Z,9.70
2022-08-16T22:06:13.303Z,10.30
2022-08-16T22:08:48.855Z,8.10
2022-08-16T22:11:22.584Z,11.55
2022-08-16T22:13:57.430Z,10.88
2022-08-16T22:16:33.265Z,13.27
2022-08-16T22:19:01.484Z,11.23
2022-08-16T22:21:28.883Z,9.60
2022-08-16T22:23:58.404Z,9.40
2022-08-16T22:26:39.747Z,11.15
2022-08-16T22:29:13.042Z,12.43
2022-08-16T22:31:41.481Z,11.10
2022-08-16T22:34:09.008Z,10.73
2022-08-16T22:36:36.953Z,9.93
2022-08-16T22:39:06.383Z,10.15
2022-08-16T22:41:34.932Z,8.45
2022-08-16T22:44:03.618Z,10.43
2022-08-16T22:46:30.948Z,8.98
2022-08-16T22:48:57.935Z,10.27
2022-08-16T22:51:26.875Z,12.60
2022-08-16T22:53:55.456Z,9.15
2022-08-16T22:56:23.641Z,12.52
2022-08-16T22:58:50.584Z,12.75
2022-08-16T23:01:19.777Z,11.20
2022-08-16T23:03:46.817Z,7.97
2022-08-16T23:06:14.381Z,12.20
2022-08-16T23:08:43.052Z,8.63
2022-08-16T23:11:19.466Z,10.68
2022-08-16T23:13:53.241Z,9.75
2022-08-16T23:16:33.502Z,15.82
2022-08-16T23:19:10.601Z,9.77
2022-08-16T23:21:40.793Z,12.65
2022-08-16T23:24:08.763Z,11.65
2022-08-16T23:26:46.654Z,9.77
2022-08-16T23:29:24.423Z,9.13
2022-08-16T23:31:59.069Z,11.73
2022-08-16T23:34:28.383Z,13.65
2022-08-16T23:36:55.870Z,14.63
2022-08-16T23:39:23.802Z,13.88
2022-08-16T23:41:50.859Z,11.23
2022-08-16T23:44:56.369Z,9.57
2022-08-16T23:47:06.292Z,8.02
2022-08-16T23:49:58.439Z,11.18
2022-08-16T23:52:45.724Z,8.95
2022-08-16T23:55:08.444Z,11.00
2022-08-16T23:57:35.358Z,9.38
